Main page
METAR-TAF:

METAR-TAF

Airports :

Oil platform

P11-b, Netherlands

latitude: 52-21-36N, longitude: 3-20-30E, elevation: 24 m

Current weather observation

The report was made 44 minutes ago, at 08:55 UTC
Wind 10 kt from variable directions
Temperature 10°C
Humidity 93%
Pressure 1009 hPa
Visibility: 6000 m
Scattered clouds at a height of 400 ft
Broken clouds at a height of 500 ft

METAR: EHPG 190855Z AUTO VRB10KT 6000 SCT004 BKN005 10/09 Q1009 W///H///

Time: 11:39 (09:39 UTC)


TAF: missing

Weather observations and forecasts of more than 4000 airports (METAR and TAF reports).

The available stations are represented by yellow and red dots on the map.

Hover mouse over dot to see the name of the station.

Then click to see weather observations and forecasts.

To change the map : click on the green buttons with a black cross to zoom in, on the green button with a dash to zoom out, or on the green arrows for adjacent maps.


METAR-TAF: